Anzahl Datensätze: 143
min. Temperatur: 4.4 °C
max. Temperatur: 12.3 °C
max. Windgeschwindigkeit: 14.4 km/h
Niederschlagsumme: 0.0 mm
| Datum |
Zeit |
Temp °C |
Feuchte % |
Taupunkt °C |
Luftdruck hPa |
Wind km/h |
Windrichtung |
Strahlung w/m² |
Niederschlag mm |
|---|---|---|---|---|---|---|---|---|---|
| 15.10.2025 | 00:07 | 8.2 | 82 | 5.3 | 1022.4 | 3.6 | NNO | 0 | 0.0 |
| 15.10.2025 | 00:17 | 8.1 | 82 | 5.3 | 1022.5 | 3.6 | NNO | 0 | 0.0 |
| 15.10.2025 | 00:27 | 7.9 | 82 | 5.0 | 1022.6 | 4.7 | NO | 0 | 0.0 |
| 15.10.2025 | 00:37 | 7.7 | 82 | 4.8 | 1022.6 | 2.9 | NNO | 0 | 0.0 |
| 15.10.2025 | 00:47 | 7.7 | 80 | 4.6 | 1022.7 | 6.5 | NNO | 0 | 0.0 |
| 15.10.2025 | 00:57 | 7.6 | 81 | 4.5 | 1022.7 | 1.1 | NNW | 0 | 0.0 |
| 15.10.2025 | 01:07 | 7.5 | 84 | 5.0 | 1022.8 | 0.7 | N | 0 | 0.0 |
| 15.10.2025 | 01:17 | 7.1 | 84 | 4.5 | 1022.9 | 2.2 | NNO | 0 | 0.0 |
| 15.10.2025 | 01:27 | 7.1 | 83 | 4.4 | 1022.9 | 4.0 | NO | 0 | 0.0 |
| 15.10.2025 | 01:37 | 7.1 | 82 | 4.3 | 1022.9 | 5.0 | NO | 0 | 0.0 |
| 15.10.2025 | 01:47 | 7.1 | 82 | 4.3 | 1022.9 | 4.3 | NNO | 0 | 0.0 |
| 15.10.2025 | 01:57 | 7.0 | 83 | 4.3 | 1022.9 | 5.0 | NO | 0 | 0.0 |
| 15.10.2025 | 02:07 | 6.8 | 84 | 4.2 | 1022.9 | 4.3 | NNO | 0 | 0.0 |
| 15.10.2025 | 02:17 | 6.8 | 84 | 4.3 | 1022.9 | 4.3 | NO | 0 | 0.0 |
| 15.10.2025 | 02:27 | 6.6 | 85 | 4.2 | 1023.0 | 3.2 | N | 0 | 0.0 |
| 15.10.2025 | 02:37 | 6.5 | 84 | 4.0 | 1023.0 | 1.8 | N | 0 | 0.0 |
| 15.10.2025 | 02:47 | 6.5 | 85 | 4.1 | 1022.9 | 2.2 | NO | 0 | 0.0 |
| 15.10.2025 | 02:57 | 6.1 | 86 | 3.9 | 1023.1 | 0.7 | N | 0 | 0.0 |
| 15.10.2025 | 03:07 | 6.1 | 86 | 3.9 | 1023.0 | 2.5 | N | 0 | 0.0 |
| 15.10.2025 | 03:17 | 5.9 | 86 | 3.8 | 1023.0 | 2.5 | NNO | 0 | 0.0 |
| 15.10.2025 | 03:27 | 5.8 | 86 | 3.7 | 1023.0 | 1.4 | NO | 0 | 0.0 |
| 15.10.2025 | 03:37 | 5.8 | 86 | 3.7 | 1023.0 | 6.1 | NNO | 0 | 0.0 |
| 15.10.2025 | 03:47 | 5.9 | 86 | 3.8 | 1023.0 | 1.1 | ONO | 0 | 0.0 |
| 15.10.2025 | 03:57 | 5.8 | 86 | 3.6 | 1022.9 | 3.2 | NNO | 0 | 0.0 |
| 15.10.2025 | 04:07 | 5.5 | 87 | 3.6 | 1023.1 | 1.4 | NNO | 0 | 0.0 |
| 15.10.2025 | 04:18 | 5.5 | 89 | 3.8 | 1022.9 | 1.4 | N | 0 | 0.0 |
| 15.10.2025 | 04:28 | 5.5 | 89 | 3.9 | 1022.9 | 2.5 | SSO | 0 | 0.0 |
| 15.10.2025 | 04:38 | 4.8 | 89 | 3.2 | 1023.2 | 3.2 | NNO | 0 | 0.0 |
| 15.10.2025 | 04:48 | 5.1 | 87 | 3.1 | 1023.1 | 1.8 | NNO | 0 | 0.0 |
| 15.10.2025 | 04:58 | 5.2 | 86 | 3.1 | 1023.1 | 2.5 | NNO | 0 | 0.0 |
| 15.10.2025 | 05:08 | 5.1 | 89 | 3.4 | 1023.1 | 1.1 | N | 0 | 0.0 |
| 15.10.2025 | 05:18 | 5.0 | 88 | 3.2 | 1023.1 | 3.2 | NNO | 0 | 0.0 |
| 15.10.2025 | 05:28 | 5.2 | 88 | 3.4 | 1023.2 | 1.1 | N | 0 | 0.0 |
| 15.10.2025 | 05:38 | 5.2 | 88 | 3.4 | 1023.1 | 1.4 | N | 0 | 0.0 |
| 15.10.2025 | 05:48 | 4.8 | 88 | 3.0 | 1023.2 | 2.9 | NO | 0 | 0.0 |
| 15.10.2025 | 05:58 | 5.0 | 87 | 3.0 | 1023.4 | 2.5 | N | 0 | 0.0 |
| 15.10.2025 | 06:08 | 4.7 | 88 | 2.9 | 1023.3 | 2.9 | NNW | 0 | 0.0 |
| 15.10.2025 | 06:18 | 4.6 | 88 | 2.9 | 1023.4 | 4.3 | NNO | 0 | 0.0 |
| 15.10.2025 | 06:28 | 4.5 | 88 | 2.8 | 1023.4 | 4.3 | N | 0 | 0.0 |
| 15.10.2025 | 06:38 | 5.1 | 88 | 3.2 | 1023.3 | 0.4 | N | 0 | 0.0 |
| 15.10.2025 | 06:48 | 4.8 | 88 | 3.0 | 1023.2 | 1.1 | N | 0 | 0.0 |
| 15.10.2025 | 06:58 | 4.6 | 89 | 3.0 | 1023.3 | 2.5 | NNO | 0 | 0.0 |
| 15.10.2025 | 07:08 | 4.6 | 88 | 2.8 | 1023.4 | 2.2 | NNO | 0 | 0.0 |
| 15.10.2025 | 07:18 | 4.5 | 88 | 2.7 | 1023.4 | 0.7 | NNO | 0 | 0.0 |
| 15.10.2025 | 07:28 | 4.5 | 88 | 2.7 | 1023.2 | 2.2 | NNO | 0 | 0.0 |
| 15.10.2025 | 07:38 | 4.4 | 89 | 2.7 | 1023.4 | 1.8 | N | 0 | 0.0 |
| 15.10.2025 | 07:48 | 4.5 | 88 | 2.6 | 1023.4 | 2.5 | NO | 4 | 0.0 |
| 15.10.2025 | 07:58 | 4.4 | 88 | 2.5 | 1023.4 | 2.2 | NO | 6 | 0.0 |
| 15.10.2025 | 08:08 | 4.8 | 88 | 2.9 | 1023.3 | 1.1 | N | 9 | 0.0 |
| 15.10.2025 | 08:18 | 4.6 | 87 | 2.7 | 1023.3 | 1.8 | NNO | 16 | 0.0 |
| 15.10.2025 | 08:28 | 4.4 | 88 | 2.6 | 1023.5 | 1.8 | NNO | 20 | 0.0 |
| 15.10.2025 | 08:38 | 4.5 | 88 | 2.6 | 1023.4 | 3.2 | NNO | 24 | 0.0 |
| 15.10.2025 | 08:48 | 4.8 | 87 | 2.8 | 1023.4 | 1.1 | NNO | 28 | 0.0 |
| 15.10.2025 | 08:58 | 5.4 | 86 | 3.2 | 1023.4 | 1.1 | NNO | 103 | 0.0 |
| 15.10.2025 | 09:08 | 6.3 | 84 | 3.8 | 1023.1 | 1.8 | SSW | 106 | 0.0 |
| 15.10.2025 | 09:19 | 6.7 | 83 | 4.1 | 1023.0 | 1.1 | N | 146 | 0.0 |
| 15.10.2025 | 09:29 | 7.5 | 80 | 4.3 | 1022.7 | 0.7 | N | 164 | 0.0 |
| 15.10.2025 | 09:39 | 7.1 | 80 | 3.9 | 1022.8 | 3.2 | SSW | 181 | 0.0 |
| 15.10.2025 | 09:49 | 7.3 | 79 | 3.8 | 1022.8 | 2.5 | SSW | 200 | 0.0 |
| 15.10.2025 | 09:59 | 7.7 | 77 | 3.9 | 1022.6 | 6.5 | S | 220 | 0.0 |
| 15.10.2025 | 10:09 | 8.7 | 73 | 4.2 | 1022.4 | 2.9 | SSW | 241 | 0.0 |
| 15.10.2025 | 10:19 | 7.9 | 77 | 4.1 | 1022.6 | 4.3 | S | 265 | 0.0 |
| 15.10.2025 | 10:29 | 9.7 | 71 | 4.7 | 1022.2 | 2.2 | WSW | 301 | 0.0 |
| 15.10.2025 | 10:39 | 10.2 | 73 | 5.5 | 1022.3 | 2.5 | WSW | 343 | 0.0 |
| 15.10.2025 | 10:49 | 9.1 | 75 | 4.8 | 1022.3 | 2.5 | SSW | 341 | 0.0 |
| 15.10.2025 | 10:59 | 10.0 | 72 | 5.2 | 1022.1 | 5.8 | SSW | 316 | 0.0 |
| 15.10.2025 | 11:09 | 9.5 | 75 | 5.2 | 1022.1 | 3.2 | SSW | 328 | 0.0 |
| 15.10.2025 | 11:19 | 10.5 | 72 | 5.7 | 1022.0 | 1.4 | S | 339 | 0.0 |
| 15.10.2025 | 11:29 | 10.1 | 73 | 5.5 | 1021.9 | 6.5 | S | 350 | 0.0 |
| 15.10.2025 | 11:39 | 9.7 | 74 | 5.2 | 1022.1 | 5.4 | SSW | 362 | 0.0 |
| 15.10.2025 | 11:49 | 10.5 | 73 | 6.0 | 1021.9 | 2.5 | WSW | 371 | 0.0 |
| 15.10.2025 | 11:59 | 10.7 | 71 | 5.6 | 1021.7 | 5.0 | S | 381 | 0.0 |
| 15.10.2025 | 12:09 | 10.5 | 73 | 5.9 | 1021.7 | 2.5 | S | 387 | 0.0 |
| 15.10.2025 | 12:19 | 10.3 | 72 | 5.4 | 1021.7 | 7.6 | S | 392 | 0.0 |
| 15.10.2025 | 12:29 | 10.0 | 73 | 5.4 | 1021.9 | 7.6 | S | 398 | 0.0 |
| 15.10.2025 | 12:39 | 11.2 | 68 | 5.5 | 1021.4 | 7.6 | S | 401 | 0.0 |
| 15.10.2025 | 12:49 | 10.9 | 68 | 5.3 | 1021.5 | 4.0 | S | 405 | 0.0 |
| 15.10.2025 | 12:59 | 10.4 | 69 | 5.0 | 1021.5 | 6.1 | SSW | 409 | 0.0 |
| 15.10.2025 | 13:09 | 10.6 | 69 | 5.2 | 1021.3 | 4.7 | SSW | 410 | 0.0 |
| 15.10.2025 | 13:19 | 11.7 | 64 | 5.2 | 1021.1 | 4.0 | S | 412 | 0.0 |
| 15.10.2025 | 13:29 | 10.9 | 68 | 5.2 | 1021.1 | 6.1 | SSW | 412 | 0.0 |
| 15.10.2025 | 13:39 | 10.6 | 71 | 5.6 | 1021.2 | 4.7 | S | 407 | 0.0 |
| 15.10.2025 | 13:49 | 10.9 | 69 | 5.5 | 1021.1 | 4.0 | SW | 405 | 0.0 |
| 15.10.2025 | 13:59 | 12.0 | 66 | 5.9 | 1020.8 | 5.0 | S | 400 | 0.0 |
| 15.10.2025 | 14:09 | 11.6 | 68 | 5.9 | 1020.8 | 3.2 | SSW | 396 | 0.0 |
| 15.10.2025 | 14:19 | 11.5 | 67 | 5.6 | 1020.8 | 6.5 | SSW | 390 | 0.0 |
| 15.10.2025 | 14:29 | 11.5 | 67 | 5.6 | 1020.5 | 4.0 | SSW | 381 | 0.0 |
| 15.10.2025 | 14:40 | 11.3 | 70 | 6.0 | 1020.6 | 4.3 | S | 372 | 0.0 |
| 15.10.2025 | 14:50 | 11.1 | 70 | 5.9 | 1020.6 | 4.0 | SSW | 364 | 0.0 |
| 15.10.2025 | 15:00 | 11.4 | 69 | 6.0 | 1020.5 | 6.1 | SSW | 352 | 0.0 |
| 15.10.2025 | 15:10 | 11.6 | 69 | 6.2 | 1020.4 | 5.0 | SSW | 342 | 0.0 |
| 15.10.2025 | 15:20 | 11.4 | 69 | 5.9 | 1020.4 | 5.4 | SSW | 329 | 0.0 |
| 15.10.2025 | 15:30 | 12.0 | 67 | 6.1 | 1020.3 | 4.0 | S | 317 | 0.0 |
| 15.10.2025 | 15:40 | 11.3 | 70 | 6.0 | 1020.5 | 5.0 | SSW | 301 | 0.0 |
| 15.10.2025 | 15:50 | 11.4 | 70 | 6.1 | 1020.4 | 3.6 | S | 286 | 0.0 |
| 15.10.2025 | 16:00 | 11.5 | 69 | 6.1 | 1020.4 | 6.5 | SSW | 272 | 0.0 |
| 15.10.2025 | 16:10 | 12.3 | 65 | 6.0 | 1020.2 | 6.5 | S | 260 | 0.0 |
| 15.10.2025 | 16:20 | 11.9 | 68 | 6.1 | 1020.5 | 4.7 | S | 241 | 0.0 |
| 15.10.2025 | 16:30 | 11.9 | 67 | 5.9 | 1020.4 | 9.7 | S | 221 | 0.0 |
| 15.10.2025 | 16:40 | 11.3 | 69 | 5.9 | 1020.5 | 12.6 | S | 222 | 0.0 |
| 15.10.2025 | 16:50 | 11.6 | 68 | 5.9 | 1020.5 | 3.2 | S | 82 | 0.0 |
| 15.10.2025 | 17:00 | 11.2 | 70 | 5.8 | 1020.6 | 1.4 | S | 80 | 0.0 |
| 15.10.2025 | 17:10 | 11.2 | 70 | 6.0 | 1020.5 | 3.6 | WSW | 63 | 0.0 |
| 15.10.2025 | 17:20 | 11.3 | 70 | 6.1 | 1020.5 | 4.0 | SW | 47 | 0.0 |
| 15.10.2025 | 17:30 | 10.9 | 70 | 5.6 | 1020.8 | 4.0 | NW | 32 | 0.0 |
| 15.10.2025 | 17:40 | 10.8 | 71 | 5.7 | 1020.9 | 3.6 | NNW | 20 | 0.0 |
| 15.10.2025 | 17:50 | 10.6 | 71 | 5.6 | 1021.0 | 4.3 | N | 15 | 0.0 |
| 15.10.2025 | 18:00 | 10.2 | 72 | 5.4 | 1021.1 | 2.2 | N | 11 | 0.0 |
| 15.10.2025 | 18:10 | 10.0 | 73 | 5.5 | 1021.2 | 3.6 | NNO | 7 | 0.0 |
| 15.10.2025 | 18:20 | 9.9 | 73 | 5.3 | 1021.2 | 2.2 | N | 4 | 0.0 |
| 15.10.2025 | 18:30 | 9.8 | 74 | 5.3 | 1021.3 | 3.6 | W | 2 | 0.0 |
| 15.10.2025 | 18:40 | 9.8 | 74 | 5.3 | 1021.4 | 4.3 | N | 0 | 0.0 |
| 15.10.2025 | 18:50 | 9.8 | 74 | 5.3 | 1021.4 | 1.8 | N | 0 | 0.0 |
| 15.10.2025 | 19:00 | 9.7 | 74 | 5.4 | 1021.7 | 2.9 | N | 0 | 0.0 |
| 15.10.2025 | 19:10 | 9.7 | 74 | 5.3 | 1021.7 | 5.8 | NNO | 0 | 0.0 |
| 15.10.2025 | 19:20 | 9.6 | 74 | 5.2 | 1021.9 | 3.2 | NNW | 0 | 0.0 |
| 15.10.2025 | 19:30 | 9.6 | 74 | 5.2 | 1021.9 | 2.2 | NNO | 0 | 0.0 |
| 15.10.2025 | 19:41 | 9.5 | 74 | 5.0 | 1021.9 | 2.9 | NO | 0 | 0.0 |
| 15.10.2025 | 19:51 | 9.4 | 74 | 5.0 | 1022.0 | 1.4 | NNO | 0 | 0.0 |
| 15.10.2025 | 20:01 | 9.4 | 74 | 5.0 | 1022.0 | 4.0 | NO | 0 | 0.0 |
| 15.10.2025 | 20:11 | 9.5 | 74 | 5.0 | 1021.9 | 2.2 | NO | 0 | 0.0 |
| 15.10.2025 | 20:21 | 9.4 | 74 | 5.1 | 1022.1 | 3.6 | NNO | 0 | 0.0 |
| 15.10.2025 | 20:31 | 9.4 | 75 | 5.1 | 1022.2 | 4.3 | NNO | 0 | 0.0 |
| 15.10.2025 | 20:41 | 9.6 | 74 | 5.1 | 1022.1 | 4.7 | NO | 0 | 0.0 |
| 15.10.2025 | 20:51 | 9.6 | 73 | 4.9 | 1022.0 | 4.7 | NO | 0 | 0.0 |
| 15.10.2025 | 21:01 | 9.7 | 73 | 5.0 | 1022.0 | 6.1 | NNO | 0 | 0.0 |
| 15.10.2025 | 21:11 | 9.7 | 72 | 4.9 | 1021.9 | 7.2 | NO | 0 | 0.0 |
| 15.10.2025 | 21:21 | 9.6 | 73 | 5.0 | 1021.9 | 7.2 | NNO | 0 | 0.0 |
| 15.10.2025 | 21:31 | 9.6 | 73 | 5.0 | 1022.0 | 2.9 | WSW | 0 | 0.0 |
| 15.10.2025 | 21:41 | 9.6 | 74 | 5.2 | 1021.9 | 3.6 | NNO | 0 | 0.0 |
| 15.10.2025 | 21:51 | 9.6 | 74 | 5.2 | 1022.0 | 3.6 | NNO | 0 | 0.0 |
| 15.10.2025 | 22:01 | 9.6 | 74 | 5.1 | 1022.0 | 1.4 | N | 0 | 0.0 |
| 15.10.2025 | 22:11 | 9.5 | 77 | 5.6 | 1022.0 | 1.4 | N | 0 | 0.0 |
| 15.10.2025 | 22:21 | 9.6 | 74 | 5.2 | 1021.9 | 1.8 | N | 0 | 0.0 |
| 15.10.2025 | 22:31 | 9.5 | 74 | 5.0 | 1021.9 | 0.7 | N | 0 | 0.0 |
| 15.10.2025 | 22:41 | 9.8 | 74 | 5.4 | 1021.9 | 1.1 | N | 0 | 0.0 |
| 15.10.2025 | 22:51 | 9.6 | 77 | 5.6 | 1021.8 | 4.0 | S | 0 | 0.0 |
| 15.10.2025 | 23:01 | 9.7 | 77 | 5.8 | 1021.9 | 4.0 | SSO | 0 | 0.0 |
| 15.10.2025 | 23:11 | 9.6 | 74 | 5.2 | 1021.9 | 1.8 | NNW | 0 | 0.0 |
| 15.10.2025 | 23:21 | 9.7 | 73 | 5.1 | 1021.8 | 0.4 | N | 0 | 0.0 |
| 15.10.2025 | 23:31 | 9.6 | 73 | 4.9 | 1021.7 | 0.7 | N | 0 | 0.0 |
| 15.10.2025 | 23:41 | 9.2 | 78 | 5.5 | 1021.7 | 2.5 | S | 0 | 0.0 |
| 15.10.2025 | 23:51 | 9.2 | 78 | 5.6 | 1021.7 | 4.7 | S | 0 | 0.0 |